Time;durP1;ratioP1;P1;durP2;ratioP2;P2;SDS_P1;SDS_P2;PMS_P1;PMS_P2;Temp;Humidity;BMP_temperature;BMP_pressure;BME280_temperature;BME280_humidity;BME280_pressure;Samples;Min_cycle;Max_cycle;Signal;HPM_P1;HPM_P2
2024/02/11 00:01:14;;;;;;;8.43;6.27;;;10.00;52.50;;;;;;5000488;28;20711;-63
2024/02/11 00:03:40;;;;;;;6.67;6.07;;;10.10;51.80;;;;;;5004623;28;20206;-63
2024/02/11 00:06:08;;;;;;;6.70;5.33;;;10.20;50.90;;;;;;4995886;28;20738;-63
2024/02/11 00:08:38;;;;;;;5.90;5.07;;;10.20;50.50;;;;;;4998346;28;20221;-64
2024/02/11 00:11:04;;;;;;;6.23;5.63;;;10.20;50.30;;;;;;5011942;28;20230;-64
2024/02/11 00:13:31;;;;;;;6.80;4.90;;;10.30;49.70;;;;;;5004441;28;20225;-64
2024/02/11 00:15:58;;;;;;;5.53;5.03;;;10.30;49.30;;;;;;5002595;28;20209;-63
2024/02/11 00:18:28;;;;;;;5.13;4.63;;;10.40;49.20;;;;;;5008922;28;20766;-64
2024/02/11 00:20:54;;;;;;;5.90;4.77;;;10.40;48.70;;;;;;5001010;28;20424;-63
2024/02/11 00:23:22;;;;;;;6.57;5.13;;;10.60;47.90;;;;;;4994557;28;20668;-63
2024/02/11 00:25:48;;;;;;;5.20;4.23;;;10.60;48.10;;;;;;5004880;28;20213;-63
2024/02/11 00:28:15;;;;;;;4.67;4.20;;;10.60;47.70;;;;;;5007865;28;20249;-63
2024/02/11 00:30:41;;;;;;;5.30;4.67;;;10.50;47.70;;;;;;4998415;28;20210;-64
2024/02/11 00:33:10;;;;;;;5.23;4.73;;;10.50;48.10;;;;;;5005611;28;20265;-64
2024/02/11 00:35:36;;;;;;;8.77;5.37;;;10.40;48.40;;;;;;5000541;28;20627;-64
2024/02/11 00:38:03;;;;;;;6.30;5.13;;;10.30;48.70;;;;;;5005258;28;20203;-64
2024/02/11 00:40:29;;;;;;;6.57;5.00;;;10.30;49.10;;;;;;5005680;28;20210;-64
2024/02/11 00:42:56;;;;;;;6.50;5.27;;;10.20;49.20;;;;;;5005820;28;20316;-64
2024/02/11 00:45:23;;;;;;;5.30;4.80;;;10.20;49.20;;;;;;4998727;28;20633;-64
2024/02/11 00:47:50;;;;;;;5.93;5.10;;;10.20;49.30;;;;;;5005196;28;20214;-64
2024/02/11 00:50:17;;;;;;;5.40;4.90;;;10.20;49.50;;;;;;5010478;28;20210;-64
2024/02/11 00:52:44;;;;;;;6.03;4.70;;;10.20;49.50;;;;;;5010743;28;20321;-64
2024/02/11 00:55:11;;;;;;;6.20;5.40;;;10.10;49.60;;;;;;5007805;28;20646;-64
2024/02/11 00:57:37;;;;;;;5.93;4.40;;;10.10;49.10;;;;;;5010795;28;20265;-64
2024/02/11 01:00:09;;;;;;;5.70;4.33;;;10.20;49.20;;;;;;5011333;28;20362;-64
2024/02/11 01:02:36;;;;;;;5.23;4.70;;;10.30;49.30;;;;;;4996158;28;20310;-64
2024/02/11 01:05:03;;;;;;;5.10;4.60;;;10.40;49.10;;;;;;5000506;28;20556;-64
2024/02/11 01:07:30;;;;;;;5.30;4.80;;;10.30;49.00;;;;;;5011348;28;20218;-64
2024/02/11 01:09:57;;;;;;;5.03;4.23;;;10.30;49.10;;;;;;5015283;28;20214;-64
2024/02/11 01:12:23;;;;;;;4.30;3.90;;;10.40;49.10;;;;;;5014516;28;20229;-64
2024/02/11 01:14:50;;;;;;;8.27;4.13;;;10.40;49.40;;;;;;5009559;28;20206;-64
2024/02/11 01:17:19;;;;;;;5.10;4.57;;;10.50;49.30;;;;;;5006870;28;20208;-64
2024/02/11 01:19:46;;;;;;;4.70;4.30;;;10.60;49.60;;;;;;5005162;28;20236;-64
2024/02/11 01:22:13;;;;;;;5.40;4.47;;;10.50;49.50;;;;;;5007131;28;20230;-64
2024/02/11 01:24:39;;;;;;;5.77;4.57;;;10.50;49.50;;;;;;5011018;28;20298;-64
2024/02/11 01:27:06;;;;;;;5.27;4.20;;;10.60;49.60;;;;;;5013839;28;20214;-65
2024/02/11 01:29:32;;;;;;;5.93;4.47;;;10.60;49.80;;;;;;5013925;28;20241;-64
2024/02/11 01:31:59;;;;;;;5.50;4.10;;;10.60;50.10;;;;;;5009812;28;20296;-64
2024/02/11 01:34:26;;;;;;;4.70;4.20;;;10.70;50.40;;;;;;5014284;28;20588;-64
2024/02/11 01:36:53;;;;;;;4.60;4.20;;;10.70;50.60;;;;;;5011629;28;20207;-64
2024/02/11 01:39:20;;;;;;;5.77;4.20;;;10.70;51.20;;;;;;5006856;28;20207;-64
2024/02/11 01:41:46;;;;;;;7.60;4.97;;;10.70;51.30;;;;;;5013242;28;20711;-65
2024/02/11 01:44:14;;;;;;;5.37;4.60;;;10.70;51.50;;;;;;5013466;28;20246;-64
2024/02/11 01:46:41;;;;;;;5.70;4.70;;;10.70;51.80;;;;;;5013852;28;20300;-64
2024/02/11 01:49:10;;;;;;;6.57;4.70;;;10.70;52.00;;;;;;5012708;28;20229;-64
2024/02/11 01:51:37;;;;;;;5.97;4.43;;;10.70;52.00;;;;;;5008016;28;20237;-64
2024/02/11 01:54:03;;;;;;;5.20;4.53;;;10.70;52.30;;;;;;5013668;28;20245;-64
2024/02/11 01:56:30;;;;;;;6.97;5.40;;;10.70;52.50;;;;;;5004348;28;20729;-64
2024/02/11 01:58:57;;;;;;;5.30;4.80;;;10.60;52.90;;;;;;5000644;28;20242;-64
2024/02/11 02:01:25;;;;;;;5.10;4.67;;;10.60;52.80;;;;;;5011094;28;20310;-64
2024/02/11 02:03:51;;;;;;;6.47;5.27;;;10.60;53.00;;;;;;5014146;28;20588;-64
2024/02/11 02:06:18;;;;;;;5.47;4.97;;;10.70;53.10;;;;;;5012412;28;20210;-64
2024/02/11 02:08:44;;;;;;;6.30;5.70;;;10.80;53.10;;;;;;5014305;28;20305;-64
2024/02/11 02:11:11;;;;;;;6.87;5.40;;;10.70;53.50;;;;;;5012854;28;20257;-64
2024/02/11 02:13:38;;;;;;;7.10;5.40;;;10.70;53.70;;;;;;5009408;28;20226;-64
2024/02/11 02:16:08;;;;;;;5.63;5.13;;;10.70;54.00;;;;;;5008901;28;20679;-64
2024/02/11 02:18:34;;;;;;;6.67;5.73;;;10.70;54.10;;;;;;5013334;28;20210;-64
2024/02/11 02:21:01;;;;;;;6.80;5.23;;;10.70;54.10;;;;;;5009862;28;20709;-64
2024/02/11 02:23:27;;;;;;;6.10;5.50;;;10.70;54.80;;;;;;5007595;28;20283;-64
2024/02/11 02:25:54;;;;;;;5.87;5.37;;;10.70;54.40;;;;;;5013089;28;20214;-64
2024/02/11 02:28:20;;;;;;;5.97;5.37;;;10.70;54.50;;;;;;5012770;28;20233;-64
2024/02/11 02:30:47;;;;;;;6.60;6.00;;;10.60;55.00;;;;;;5006621;28;20245;-64
2024/02/11 02:33:14;;;;;;;6.47;5.87;;;10.60;55.30;;;;;;5001890;28;23539;-64
2024/02/11 02:35:40;;;;;;;6.37;5.77;;;10.60;55.40;;;;;;5007543;28;20207;-64
2024/02/11 02:38:07;;;;;;;6.47;5.87;;;10.60;55.60;;;;;;5013561;28;20680;-64
2024/02/11 02:40:33;;;;;;;6.93;5.83;;;10.60;56.10;;;;;;5011757;28;20268;-64
2024/02/11 02:43:06;;;;;;;6.97;6.10;;;10.60;56.20;;;;;;5013200;28;20312;-64
2024/02/11 02:45:33;;;;;;;6.50;5.90;;;10.60;56.60;;;;;;5013591;28;20260;-64
2024/02/11 02:47:59;;;;;;;6.60;6.03;;;10.70;56.70;;;;;;5013370;28;20221;-64
2024/02/11 02:50:26;;;;;;;6.90;6.20;;;10.60;57.00;;;;;;5010226;28;20198;-64
2024/02/11 02:52:53;;;;;;;9.40;6.50;;;10.50;57.40;;;;;;5005162;28;20234;-64
2024/02/11 02:55:20;;;;;;;7.60;6.73;;;10.60;57.50;;;;;;5011855;28;20218;-64
2024/02/11 02:57:46;;;;;;;8.73;6.93;;;10.50;58.10;;;;;;5012306;28;20229;-64
2024/02/11 03:00:13;;;;;;;6.90;6.20;;;10.50;58.30;;;;;;5012536;28;20205;-64
2024/02/11 03:02:39;;;;;;;7.57;6.87;;;10.50;58.30;;;;;;5006852;28;20319;-64
2024/02/11 03:05:06;;;;;;;8.33;7.17;;;10.60;58.60;;;;;;5011888;28;20209;-64
2024/02/11 03:07:33;;;;;;;8.53;7.73;;;10.60;58.80;;;;;;5011871;28;20709;-64
2024/02/11 03:10:00;;;;;;;8.80;8.00;;;10.60;59.00;;;;;;5003276;28;20229;-64
2024/02/11 03:12:27;;;;;;;8.10;7.23;;;10.60;59.70;;;;;;5004711;28;20232;-64
2024/02/11 03:14:53;;;;;;;8.33;7.47;;;10.50;60.40;;;;;;5008273;28;20279;-64
2024/02/11 03:17:20;;;;;;;8.40;7.60;;;10.50;60.80;;;;;;5013264;28;20209;-64
2024/02/11 03:19:47;;;;;;;8.20;7.40;;;10.50;61.10;;;;;;5011062;28;20215;-64
2024/02/11 03:22:13;;;;;;;8.13;7.33;;;10.40;61.90;;;;;;5009781;28;20258;-64
2024/02/11 03:24:40;;;;;;;9.27;8.37;;;10.40;62.80;;;;;;5009676;28;20212;-63
2024/02/11 03:27:06;;;;;;;9.73;7.87;;;10.50;62.90;;;;;;4999743;28;20235;-64
2024/02/11 03:29:33;;;;;;;8.70;7.90;;;10.40;62.80;;;;;;5005607;28;20220;-64
2024/02/11 03:31:59;;;;;;;8.67;7.67;;;10.40;62.90;;;;;;5011076;28;20295;-64
2024/02/11 03:34:26;;;;;;;9.17;8.27;;;10.40;63.00;;;;;;5011917;28;20230;-65
2024/02/11 03:36:53;;;;;;;9.37;8.47;;;10.40;63.70;;;;;;5008579;28;20293;-64
2024/02/11 03:39:20;;;;;;;9.80;8.90;;;10.40;64.00;;;;;;5012493;28;20751;-64
2024/02/11 03:41:46;;;;;;;9.30;8.50;;;10.40;64.30;;;;;;5003766;28;20258;-64
2024/02/11 03:44:13;;;;;;;10.60;9.03;;;10.30;65.00;;;;;;5003785;28;20297;-64
2024/02/11 03:46:40;;;;;;;9.20;8.30;;;10.40;64.90;;;;;;5005359;28;20218;-64
2024/02/11 03:49:06;;;;;;;8.90;8.00;;;10.30;65.00;;;;;;5007836;28;20210;-64
2024/02/11 03:51:33;;;;;;;10.37;9.10;;;10.40;64.60;;;;;;5002271;28;20226;-64
2024/02/11 03:53:59;;;;;;;9.07;8.17;;;10.40;64.80;;;;;;5012414;28;20284;-64
2024/02/11 03:56:26;;;;;;;9.10;8.20;;;10.40;64.70;;;;;;5012626;28;20214;-64
2024/02/11 03:58:53;;;;;;;9.43;8.53;;;10.30;64.90;;;;;;5012352;28;20206;-64
2024/02/11 04:01:19;;;;;;;8.90;8.00;;;10.30;65.20;;;;;;5011316;28;20277;-64
2024/02/11 04:03:46;;;;;;;9.93;8.93;;;10.30;65.20;;;;;;5010957;28;20210;-64
2024/02/11 04:06:12;;;;;;;9.30;8.43;;;10.30;65.70;;;;;;5010897;28;20209;-64
2024/02/11 04:08:41;;;;;;;9.00;8.20;;;10.30;65.50;;;;;;5003020;28;20308;-64
2024/02/11 04:11:08;;;;;;;9.13;8.10;;;10.30;65.30;;;;;;5007956;28;20230;-64
2024/02/11 04:13:36;;;;;;;9.10;8.20;;;10.30;65.40;;;;;;5003852;28;20252;-64
2024/02/11 04:16:11;;;;;;;8.87;8.07;;;10.30;65.60;;;;;;5011824;28;20595;-64
2024/02/11 04:18:37;;;;;;;9.43;8.53;;;10.30;65.70;;;;;;5004145;28;20213;-64
2024/02/11 04:21:04;;;;;;;9.37;8.47;;;10.40;65.80;;;;;;5006263;28;20292;-64
2024/02/11 04:23:32;;;;;;;8.97;8.10;;;10.20;66.90;;;;;;5011623;28;20214;-64
2024/02/11 04:26:01;;;;;;;8.43;7.40;;;10.30;67.30;;;;;;5011827;28;20260;-64
2024/02/11 04:28:28;;;;;;;9.70;8.80;;;10.30;67.10;;;;;;5001021;28;20221;-64
2024/02/11 04:30:55;;;;;;;8.17;7.47;;;10.30;67.30;;;;;;5005696;28;20217;-64
2024/02/11 04:33:22;;;;;;;9.23;8.33;;;10.30;67.50;;;;;;5011267;28;20237;-64
2024/02/11 04:35:49;;;;;;;9.27;7.33;;;10.10;68.10;;;;;;5009714;28;20236;-64
2024/02/11 04:38:17;;;;;;;8.63;7.83;;;10.10;69.00;;;;;;5010643;28;20681;-64
2024/02/11 04:40:44;;;;;;;8.53;7.63;;;10.10;69.50;;;;;;5008555;28;20213;-64
2024/02/11 04:43:10;;;;;;;7.97;7.27;;;10.00;70.60;;;;;;5010547;28;20201;-64
2024/02/11 04:45:37;;;;;;;8.03;7.23;;;10.10;70.40;;;;;;5005364;28;20243;-64
2024/02/11 04:48:04;;;;;;;5.50;5.00;;;10.00;70.70;;;;;;5015102;28;20210;-64
2024/02/11 04:50:31;;;;;;;4.30;3.90;;;9.90;69.90;;;;;;5007562;28;20205;-64
2024/02/11 04:52:58;;;;;;;2.53;2.33;;;9.80;69.50;;;;;;5015122;28;20279;-64
2024/02/11 04:55:27;;;;;;;1.83;1.73;;;9.60;66.60;;;;;;5014086;28;20260;-64
2024/02/11 04:57:56;;;;;;;1.50;1.40;;;9.40;65.80;;;;;;5015204;28;20209;-64
2024/02/11 05:00:26;;;;;;;1.53;1.43;;;9.20;64.10;;;;;;5015571;28;20213;-64
2024/02/11 05:02:52;;;;;;;1.20;1.20;;;9.10;64.80;;;;;;5010575;28;20686;-64
2024/02/11 05:05:19;;;;;;;1.33;1.33;;;9.00;64.10;;;;;;5004367;28;20306;-64
2024/02/11 05:07:46;;;;;;;1.20;1.20;;;8.80;65.10;;;;;;5008431;28;20211;-64
2024/02/11 05:10:13;;;;;;;1.27;1.17;;;8.70;63.80;;;;;;5015219;28;20680;-64
2024/02/11 05:12:41;;;;;;;1.10;1.10;;;8.70;63.70;;;;;;5014566;28;20764;-64
2024/02/11 05:15:08;;;;;;;1.10;1.10;;;8.70;63.40;;;;;;5014327;28;20211;-64
2024/02/11 05:17:38;;;;;;;1.43;1.40;;;8.70;64.30;;;;;;5007396;28;20610;-63
2024/02/11 05:20:06;;;;;;;1.13;1.13;;;8.70;64.20;;;;;;5014501;28;20200;-64
2024/02/11 05:22:33;;;;;;;1.07;1.07;;;8.40;63.90;;;;;;5003882;28;20648;-64
2024/02/11 05:25:00;;;;;;;0.83;0.83;;;8.40;63.90;;;;;;5010600;28;20207;-64
2024/02/11 05:27:27;;;;;;;1.10;1.10;;;8.30;65.20;;;;;;5014921;28;20212;-64
2024/02/11 05:29:54;;;;;;;1.00;1.00;;;8.30;64.60;;;;;;5007835;28;20643;-64
2024/02/11 05:32:20;;;;;;;1.20;1.10;;;8.30;64.30;;;;;;5015109;28;20325;-64
2024/02/11 05:34:47;;;;;;;1.20;1.20;;;8.20;63.70;;;;;;5010235;28;20237;-64
2024/02/11 05:37:14;;;;;;;1.20;1.20;;;8.30;64.30;;;;;;5014529;28;20207;-64
2024/02/11 05:39:42;;;;;;;1.20;1.20;;;8.20;63.30;;;;;;5000469;28;20633;-64
2024/02/11 05:42:11;;;;;;;1.00;1.00;;;8.00;63.00;;;;;;5004501;28;20318;-63
2024/02/11 05:44:38;;;;;;;1.20;1.20;;;8.00;63.50;;;;;;4998982;28;20680;-64
2024/02/11 05:47:05;;;;;;;1.80;1.10;;;8.10;63.20;;;;;;5013831;28;20237;-64
2024/02/11 05:49:31;;;;;;;1.10;1.10;;;8.10;63.70;;;;;;5014906;28;20203;-64
2024/02/11 05:51:58;;;;;;;1.20;1.20;;;8.00;62.90;;;;;;5005039;28;20234;-63
2024/02/11 05:54:28;;;;;;;1.10;1.10;;;8.00;63.40;;;;;;5007283;28;20293;-64
2024/02/11 05:56:54;;;;;;;1.20;1.20;;;7.90;63.70;;;;;;5014819;28;20238;-64
2024/02/11 05:59:21;;;;;;;1.30;1.30;;;7.90;64.10;;;;;;5014713;28;20211;-64
2024/02/11 06:01:48;;;;;;;1.20;1.20;;;8.00;64.50;;;;;;5008893;28;20232;-64
2024/02/11 06:04:15;;;;;;;1.00;1.00;;;7.80;65.00;;;;;;5014504;28;20732;-64
2024/02/11 06:06:41;;;;;;;1.40;1.40;;;7.90;64.80;;;;;;5010965;28;20262;-64
2024/02/11 06:09:12;;;;;;;1.40;1.40;;;7.60;63.30;;;;;;5005830;28;20628;-64
2024/02/11 06:11:39;;;;;;;1.47;1.40;;;7.80;63.50;;;;;;5009871;28;20313;-64
2024/02/11 06:14:06;;;;;;;1.50;1.50;;;7.80;62.50;;;;;;5014536;28;20230;-63
2024/02/11 06:16:33;;;;;;;1.40;1.40;;;7.70;62.80;;;;;;5014519;28;20210;-64
2024/02/11 06:19:00;;;;;;;1.40;1.40;;;7.40;63.30;;;;;;5016755;28;20306;-64
2024/02/11 06:21:26;;;;;;;1.40;1.40;;;7.60;62.90;;;;;;5014842;28;20953;-64
2024/02/11 06:23:54;;;;;;;1.50;1.50;;;7.40;63.10;;;;;;5023786;28;20230;-64
2024/02/11 06:26:20;;;;;;;1.30;1.30;;;7.60;63.00;;;;;;5013409;28;20250;-64
2024/02/11 06:28:48;;;;;;;1.40;1.30;;;7.50;63.00;;;;;;5018566;28;20278;-64
2024/02/11 06:31:14;;;;;;;1.40;1.40;;;7.50;62.30;;;;;;5011830;28;20724;-64
2024/02/11 06:33:41;;;;;;;1.40;1.40;;;7.30;63.10;;;;;;5015579;28;20238;-64
2024/02/11 06:36:07;;;;;;;1.40;1.40;;;7.20;64.20;;;;;;5013514;28;20261;-64
2024/02/11 06:38:35;;;;;;;1.20;1.20;;;7.00;63.50;;;;;;5013884;28;20269;-64
2024/02/11 06:41:01;;;;;;;1.30;1.30;;;7.10;63.30;;;;;;5009071;28;20207;-64
2024/02/11 06:43:32;;;;;;;1.40;1.40;;;7.10;63.10;;;;;;5002443;28;20229;-64
2024/02/11 06:45:59;;;;;;;1.50;1.50;;;7.10;63.60;;;;;;5009053;28;20207;-64
2024/02/11 06:48:27;;;;;;;1.40;1.40;;;7.10;63.40;;;;;;5012502;28;20208;-64
2024/02/11 06:50:54;;;;;;;1.43;1.30;;;7.10;63.80;;;;;;5011960;28;20214;-64
2024/02/11 06:53:21;;;;;;;1.47;1.47;;;7.00;62.00;;;;;;5006017;28;20293;-63
2024/02/11 06:55:47;;;;;;;1.43;1.43;;;7.00;63.60;;;;;;5007819;28;20301;-63
2024/02/11 06:58:14;;;;;;;1.40;1.40;;;6.90;64.10;;;;;;5013516;28;20253;-64
2024/02/11 07:00:40;;;;;;;1.30;1.30;;;6.90;63.70;;;;;;5013173;28;20214;-64
2024/02/11 07:03:10;;;;;;;1.30;1.30;;;7.00;63.20;;;;;;5000776;28;20230;-64
2024/02/11 07:05:41;;;;;;;1.60;1.60;;;6.90;62.90;;;;;;5008241;28;20211;-64
2024/02/11 07:08:11;;;;;;;1.43;1.43;;;7.10;62.00;;;;;;5011363;28;20220;-65
2024/02/11 07:10:37;;;;;;;1.60;1.50;;;6.80;62.10;;;;;;5005131;28;20226;-64
2024/02/11 07:13:04;;;;;;;1.23;1.23;;;6.90;62.50;;;;;;5006280;28;20665;-64
2024/02/11 07:15:30;;;;;;;1.50;1.50;;;6.90;62.30;;;;;;5005096;28;20265;-64
2024/02/11 07:17:57;;;;;;;1.40;1.40;;;6.90;62.00;;;;;;5012851;28;20265;-64
2024/02/11 07:20:23;;;;;;;1.40;1.40;;;6.80;61.60;;;;;;5005816;28;20206;-63
2024/02/11 07:22:50;;;;;;;1.40;1.40;;;6.80;62.70;;;;;;5007987;28;20227;-64
2024/02/11 07:25:17;;;;;;;1.40;1.40;;;6.70;63.00;;;;;;5010698;28;20629;-64
2024/02/11 07:27:43;;;;;;;1.60;1.60;;;6.70;62.80;;;;;;5013438;28;20565;-65
2024/02/11 07:30:11;;;;;;;1.57;1.57;;;6.70;63.20;;;;;;5001579;28;20209;-64
2024/02/11 07:32:38;;;;;;;1.53;1.53;;;6.70;63.60;;;;;;5010707;28;20238;-65
2024/02/11 07:35:06;;;;;;;1.57;1.57;;;6.80;63.00;;;;;;5011738;28;20697;-65
2024/02/11 07:37:33;;;;;;;1.30;1.30;;;6.60;64.00;;;;;;5008553;28;20229;-64
2024/02/11 07:39:59;;;;;;;1.70;1.60;;;6.70;62.80;;;;;;4988126;28;20234;-64
2024/02/11 07:42:26;;;;;;;1.63;1.63;;;6.60;63.40;;;;;;4998100;28;20288;-65
2024/02/11 07:44:52;;;;;;;1.70;1.70;;;6.80;63.80;;;;;;5010412;28;20675;-65
2024/02/11 07:47:20;;;;;;;1.70;1.70;;;6.80;62.80;;;;;;5006802;28;20295;-65
2024/02/11 07:49:47;;;;;;;1.70;1.60;;;6.70;64.00;;;;;;5007147;28;20211;-65
2024/02/11 07:52:17;;;;;;;1.50;1.50;;;6.70;63.70;;;;;;5002564;28;20234;-65
2024/02/11 07:54:44;;;;;;;1.53;1.53;;;6.70;63.80;;;;;;5003499;28;20280;-65
2024/02/11 07:57:11;;;;;;;1.90;1.80;;;6.70;63.80;;;;;;5000604;28;20211;-65
2024/02/11 07:59:37;;;;;;;1.60;1.60;;;6.50;64.90;;;;;;5006967;28;20217;-65
2024/02/11 08:02:04;;;;;;;1.90;1.80;;;6.60;63.90;;;;;;5001062;28;20231;-64
2024/02/11 08:04:31;;;;;;;1.70;1.70;;;6.50;64.50;;;;;;5002006;28;20265;-65
2024/02/11 08:06:56;;;;;;;1.93;1.83;;;6.60;65.00;;;;;;4997986;28;20667;-65
2024/02/11 08:09:23;;;;;;;1.83;1.80;;;6.60;64.40;;;;;;5004931;28;20214;-65
2024/02/11 08:11:49;;;;;;;1.90;1.80;;;6.80;64.30;;;;;;5001974;28;20289;-65
2024/02/11 08:14:17;;;;;;;2.23;2.13;;;6.60;65.00;;;;;;5001763;28;20704;-65
2024/02/11 08:16:43;;;;;;;2.00;1.90;;;6.70;65.10;;;;;;5006683;28;20727;-65
2024/02/11 08:19:10;;;;;;;2.00;1.90;;;6.60;64.10;;;;;;5007314;28;20206;-65
2024/02/11 08:21:37;;;;;;;2.10;2.00;;;6.50;64.90;;;;;;5004861;28;20324;-64
2024/02/11 08:24:03;;;;;;;2.00;1.80;;;6.70;64.40;;;;;;4998425;28;20234;-65
2024/02/11 08:26:30;;;;;;;2.40;1.97;;;6.70;63.90;;;;;;5006878;28;20213;-65
2024/02/11 08:28:59;;;;;;;2.00;1.90;;;6.60;64.30;;;;;;5002284;28;20237;-65
2024/02/11 08:31:29;;;;;;;2.30;2.10;;;6.70;65.10;;;;;;5007021;28;20234;-70
2024/02/11 08:33:56;;;;;;;2.20;2.10;;;6.80;64.30;;;;;;4999275;28;20564;-65
2024/02/11 08:36:23;;;;;;;2.30;2.20;;;6.60;64.50;;;;;;5000924;28;20625;-66
2024/02/11 08:38:50;;;;;;;2.27;2.17;;;6.70;63.60;;;;;;4980227;28;20211;-64
2024/02/11 08:41:17;;;;;;;2.20;2.10;;;6.70;64.10;;;;;;5006092;28;20393;-64
2024/02/11 08:43:43;;;;;;;2.30;2.10;;;6.70;64.40;;;;;;4996821;28;20621;-64
2024/02/11 08:46:10;;;;;;;2.20;2.10;;;6.90;64.00;;;;;;4995569;28;20210;-64
2024/02/11 08:48:36;;;;;;;2.23;2.13;;;6.80;63.50;;;;;;4996601;28;20214;-64
2024/02/11 08:51:03;;;;;;;2.20;2.10;;;6.70;64.50;;;;;;5007049;28;20218;-64
2024/02/11 08:53:30;;;;;;;2.20;2.10;;;6.80;64.40;;;;;;4989902;28;20283;-64
2024/02/11 08:55:57;;;;;;;2.40;2.30;;;6.80;65.00;;;;;;4990124;28;20715;-64
2024/02/11 08:58:24;;;;;;;2.67;2.50;;;6.90;64.20;;;;;;5002469;28;20209;-65
2024/02/11 09:00:51;;;;;;;2.30;2.20;;;6.90;65.30;;;;;;5003281;28;20250;-64
2024/02/11 09:03:17;;;;;;;2.70;2.50;;;6.80;65.20;;;;;;5005242;28;20306;-70
2024/02/11 09:05:44;;;;;;;2.10;2.00;;;6.90;67.20;;;;;;4996084;28;20230;-64
2024/02/11 09:08:10;;;;;;;2.33;2.23;;;6.90;65.10;;;;;;5002880;28;20563;-64
2024/02/11 09:10:38;;;;;;;2.60;2.40;;;6.90;65.30;;;;;;5000127;28;20207;-64
2024/02/11 09:13:05;;;;;;;2.40;2.30;;;6.90;65.30;;;;;;4995809;28;20231;-64
2024/02/11 09:15:31;;;;;;;2.50;2.40;;;7.10;65.50;;;;;;4994498;28;20701;-63
2024/02/11 09:17:58;;;;;;;2.40;2.30;;;7.00;65.60;;;;;;4999625;28;20661;-64
2024/02/11 09:20:24;;;;;;;2.57;2.37;;;7.10;65.70;;;;;;5000592;28;20268;-64
2024/02/11 09:22:51;;;;;;;2.57;2.47;;;7.00;65.40;;;;;;4985789;28;20574;-63
2024/02/11 09:25:17;;;;;;;2.47;2.37;;;7.10;65.50;;;;;;4992892;28;20199;-63
2024/02/11 09:27:44;;;;;;;2.80;2.60;;;7.20;65.60;;;;;;5003533;28;20207;-64
2024/02/11 09:30:13;;;;;;;2.50;2.40;;;7.20;64.70;;;;;;4996219;28;20219;-64
2024/02/11 09:32:40;;;;;;;2.63;2.53;;;7.20;65.50;;;;;;5004364;28;20223;-64
2024/02/11 09:35:07;;;;;;;2.43;2.30;;;7.20;65.50;;;;;;5003003;28;20227;-64
2024/02/11 09:37:33;;;;;;;2.60;2.40;;;7.20;66.10;;;;;;5004529;28;20235;-64
2024/02/11 09:40:00;;;;;;;2.50;2.40;;;7.20;65.10;;;;;;5009698;28;20199;-64
2024/02/11 09:42:27;;;;;;;2.27;2.17;;;7.30;64.90;;;;;;5007272;28;20606;-64
2024/02/11 09:44:53;;;;;;;2.57;2.30;;;7.30;65.60;;;;;;5008552;28;20202;-64
2024/02/11 09:47:20;;;;;;;2.60;2.40;;;7.30;65.60;;;;;;5008134;28;20596;-64
2024/02/11 09:49:47;;;;;;;2.63;2.43;;;7.40;65.10;;;;;;5001310;28;20203;-64
2024/02/11 09:52:14;;;;;;;2.50;2.40;;;7.40;64.90;;;;;;4999095;28;20745;-64
2024/02/11 09:54:41;;;;;;;2.90;2.70;;;7.30;65.20;;;;;;4974703;28;20599;-64
2024/02/11 09:57:07;;;;;;;3.00;2.80;;;7.40;65.70;;;;;;5009170;28;20212;-65
2024/02/11 09:59:34;;;;;;;2.80;2.60;;;7.50;65.30;;;;;;5006215;28;20215;-65
2024/02/11 10:02:01;;;;;;;2.90;2.70;;;7.40;65.10;;;;;;4995892;28;20646;-64
2024/02/11 10:04:28;;;;;;;2.70;2.50;;;7.40;64.90;;;;;;4989232;28;20208;-64
2024/02/11 10:06:54;;;;;;;3.07;2.87;;;7.50;65.10;;;;;;5002452;28;20293;-64
2024/02/11 10:09:22;;;;;;;3.07;2.80;;;7.40;65.70;;;;;;5007583;28;20214;-65
2024/02/11 10:11:48;;;;;;;2.80;2.60;;;7.40;66.70;;;;;;5004956;28;20237;-66
2024/02/11 10:14:17;;;;;;;3.00;2.80;;;7.40;65.70;;;;;;5000517;28;20232;-65
2024/02/11 10:16:43;;;;;;;3.17;2.87;;;7.40;65.70;;;;;;5003424;28;20331;-65
2024/02/11 10:19:11;;;;;;;3.40;3.20;;;7.40;65.70;;;;;;5008445;28;20207;-66
2024/02/11 10:21:37;;;;;;;3.40;3.10;;;7.60;65.90;;;;;;4998375;28;20226;-65
2024/02/11 10:24:04;;;;;;;3.60;3.30;;;7.60;64.50;;;;;;4998807;28;20366;-65
2024/02/11 10:26:31;;;;;;;4.20;3.80;;;7.60;64.70;;;;;;5003650;28;20238;-65
2024/02/11 10:28:58;;;;;;;2.97;2.77;;;7.60;65.90;;;;;;4975412;28;20207;-65
2024/02/11 10:31:24;;;;;;;4.43;4.03;;;7.70;64.70;;;;;;5006940;28;20270;-65
2024/02/11 10:33:51;;;;;;;3.50;3.20;;;7.60;65.40;;;;;;5002880;28;20742;-65
2024/02/11 10:36:18;;;;;;;3.30;3.10;;;7.70;64.40;;;;;;5012416;28;20292;-64
2024/02/11 10:38:45;;;;;;;4.13;3.80;;;7.80;64.40;;;;;;5010296;28;20206;-64
2024/02/11 10:41:13;;;;;;;3.90;3.20;;;7.80;65.30;;;;;;5002020;28;20236;-64
2024/02/11 10:43:39;;;;;;;3.67;3.47;;;7.70;65.40;;;;;;4999098;28;20218;-65
2024/02/11 10:46:07;;;;;;;3.47;3.17;;;7.80;65.30;;;;;;5003607;28;20199;-65
2024/02/11 10:48:34;;;;;;;4.13;3.33;;;7.80;63.50;;;;;;4997364;28;20257;-64
2024/02/11 10:51:00;;;;;;;3.87;3.47;;;7.80;64.30;;;;;;5009010;28;20207;-65
2024/02/11 10:53:27;;;;;;;4.00;3.53;;;7.80;64.20;;;;;;5003737;28;20277;-64
2024/02/11 10:55:54;;;;;;;3.93;3.63;;;7.80;63.50;;;;;;5011551;28;20253;-65
2024/02/11 10:58:20;;;;;;;3.87;3.57;;;7.90;63.90;;;;;;5007705;28;20289;-65
2024/02/11 11:00:47;;;;;;;3.87;3.53;;;7.90;63.30;;;;;;5009700;28;20586;-65
2024/02/11 11:03:16;;;;;;;4.30;3.90;;;7.90;63.50;;;;;;5003928;28;20211;-66
2024/02/11 11:05:44;;;;;;;3.87;3.40;;;7.90;64.00;;;;;;5001537;28;20258;-65
2024/02/11 11:08:10;;;;;;;4.00;3.70;;;7.90;63.40;;;;;;5004362;28;20679;-64
2024/02/11 11:10:37;;;;;;;4.17;3.80;;;8.00;64.30;;;;;;5007739;28;20698;-64
2024/02/11 11:13:03;;;;;;;4.07;3.73;;;8.00;63.80;;;;;;5006727;28;20223;-64
2024/02/11 11:15:32;;;;;;;3.60;3.30;;;8.00;64.10;;;;;;5002963;28;20717;-65
2024/02/11 11:17:58;;;;;;;4.67;4.27;;;8.00;63.40;;;;;;4993234;28;20302;-65
2024/02/11 11:20:25;;;;;;;4.07;3.53;;;7.90;63.10;;;;;;5010473;28;20207;-65
2024/02/11 11:22:51;;;;;;;4.60;3.73;;;8.00;63.70;;;;;;4984649;28;20301;-65
2024/02/11 11:25:18;;;;;;;4.30;4.00;;;7.90;63.00;;;;;;5009997;28;20579;-65
2024/02/11 11:27:44;;;;;;;4.40;3.80;;;7.90;62.90;;;;;;4981152;28;20202;-64
2024/02/11 11:30:11;;;;;;;3.93;3.57;;;8.00;63.40;;;;;;4981120;28;20706;-65
2024/02/11 11:32:38;;;;;;;3.30;3.00;;;8.00;62.90;;;;;;4978891;28;21023;-65
2024/02/11 11:35:06;;;;;;;3.70;3.40;;;8.10;62.90;;;;;;4985843;28;20242;-64
2024/02/11 11:37:32;;;;;;;3.60;3.30;;;8.00;63.00;;;;;;4981935;28;20214;-65
2024/02/11 11:39:59;;;;;;;3.77;3.47;;;8.00;63.20;;;;;;4981821;28;20245;-64
2024/02/11 11:42:25;;;;;;;4.37;3.97;;;8.10;63.70;;;;;;4981720;28;20257;-65
2024/02/11 11:44:52;;;;;;;4.10;3.70;;;8.20;63.20;;;;;;4987691;28;20293;-65
2024/02/11 11:47:20;;;;;;;4.27;3.60;;;8.10;63.60;;;;;;4985541;28;20756;-65
2024/02/11 11:49:47;;;;;;;4.13;3.70;;;8.20;62.90;;;;;;4982455;28;20601;-65
2024/02/11 11:52:14;;;;;;;4.00;3.60;;;8.10;62.70;;;;;;4980913;28;20341;-65
2024/02/11 11:54:40;;;;;;;4.10;3.80;;;8.20;63.30;;;;;;4981128;28;20293;-65
2024/02/11 11:57:08;;;;;;;3.83;3.53;;;8.30;63.20;;;;;;4987182;28;20963;-66
2024/02/11 11:59:35;;;;;;;4.00;3.60;;;8.30;62.60;;;;;;4978711;28;20743;-66
2024/02/11 12:02:02;;;;;;;4.93;3.40;;;8.30;62.90;;;;;;4974914;28;20298;-67
2024/02/11 12:04:29;;;;;;;4.50;3.77;;;8.50;62.50;;;;;;4979746;28;20306;-65
2024/02/11 12:06:56;;;;;;;4.47;4.03;;;8.40;62.00;;;;;;4989581;28;20570;-66
2024/02/11 12:09:22;;;;;;;4.50;3.63;;;8.30;62.40;;;;;;4980566;28;20306;-66
2024/02/11 12:11:49;;;;;;;3.80;3.50;;;8.30;61.90;;;;;;4977067;28;20234;-65
2024/02/11 12:14:15;;;;;;;3.83;3.40;;;8.40;62.20;;;;;;4983721;28;20236;-65
2024/02/11 12:16:42;;;;;;;4.20;3.80;;;8.20;62.90;;;;;;4979786;28;20234;-66
2024/02/11 12:19:09;;;;;;;4.57;3.50;;;8.40;62.60;;;;;;4982963;28;20258;-65
2024/02/11 12:21:36;;;;;;;4.83;4.03;;;8.40;63.10;;;;;;4986561;28;20612;-66
2024/02/11 12:24:04;;;;;;;4.00;3.60;;;8.30;62.80;;;;;;4986827;28;20214;-66
2024/02/11 12:26:32;;;;;;;4.83;3.57;;;8.40;62.70;;;;;;4986368;28;20207;-66
2024/02/11 12:28:59;;;;;;;4.10;3.70;;;8.50;62.20;;;;;;5016908;28;20279;-66
2024/02/11 12:31:26;;;;;;;4.77;3.30;;;8.50;62.10;;;;;;5013327;28;20271;-66
2024/02/11 12:33:53;;;;;;;4.03;3.73;;;8.40;62.00;;;;;;5014105;28;20599;-65
2024/02/11 12:36:21;;;;;;;4.87;4.00;;;8.40;62.80;;;;;;5012973;28;20728;-64
2024/02/11 12:38:48;;;;;;;4.70;4.17;;;8.60;62.60;;;;;;5007147;28;20209;-64
2024/02/11 13:31:24;;;;;;;4.47;3.63;;;8.40;64.10;;;;;;4928196;28;20234;-65
2024/02/11 13:33:50;;;;;;;4.13;3.40;;;8.40;63.00;;;;;;4928564;29;20309;-65
2024/02/11 13:36:17;;;;;;;4.67;3.90;;;8.50;63.50;;;;;;4934940;29;20277;-65
2024/02/11 13:38:43;;;;;;;3.87;3.50;;;8.50;63.70;;;;;;4926812;29;20304;-65
2024/02/11 13:41:10;;;;;;;3.93;3.63;;;8.50;62.10;;;;;;4903980;29;20262;-65